sensor_id;sensor_type;location;lat;lon;timestamp;P1;durP1;ratioP1;P2;durP2;ratioP2
9254;SDS011;4663;49.120;9.730;2023-02-24T00:01:57;55.53;;;51.73;;
9254;SDS011;4663;49.120;9.730;2023-02-24T00:04:35;57.30;;;53.57;;
9254;SDS011;4663;49.120;9.730;2023-02-24T00:07:08;49.53;;;46.43;;
9254;SDS011;4663;49.120;9.730;2023-02-24T00:09:36;52.43;;;49.13;;
9254;SDS011;4663;49.120;9.730;2023-02-24T00:12:04;55.53;;;51.90;;
9254;SDS011;4663;49.120;9.730;2023-02-24T00:14:34;49.87;;;46.80;;
9254;SDS011;4663;49.120;9.730;2023-02-24T00:17:01;58.70;;;55.00;;
9254;SDS011;4663;49.120;9.730;2023-02-24T00:19:28;60.83;;;56.73;;
9254;SDS011;4663;49.120;9.730;2023-02-24T00:21:58;55.57;;;51.97;;
9254;SDS011;4663;49.120;9.730;2023-02-24T00:24:25;52.77;;;49.57;;
9254;SDS011;4663;49.120;9.730;2023-02-24T00:26:55;52.37;;;48.73;;
9254;SDS011;4663;49.120;9.730;2023-02-24T00:29:23;54.73;;;50.97;;
9254;SDS011;4663;49.120;9.730;2023-02-24T00:31:50;53.60;;;50.17;;
9254;SDS011;4663;49.120;9.730;2023-02-24T00:34:33;50.83;;;47.73;;
9254;SDS011;4663;49.120;9.730;2023-02-24T00:37:00;48.73;;;45.53;;
9254;SDS011;4663;49.120;9.730;2023-02-24T00:39:27;53.50;;;50.20;;
9254;SDS011;4663;49.120;9.730;2023-02-24T00:41:59;57.37;;;53.93;;
9254;SDS011;4663;49.120;9.730;2023-02-24T00:44:30;54.00;;;50.77;;
9254;SDS011;4663;49.120;9.730;2023-02-24T00:47:00;60.40;;;56.53;;
9254;SDS011;4663;49.120;9.730;2023-02-24T00:49:28;54.23;;;51.00;;
9254;SDS011;4663;49.120;9.730;2023-02-24T00:51:55;59.57;;;55.83;;
9254;SDS011;4663;49.120;9.730;2023-02-24T00:54:21;66.67;;;62.57;;
9254;SDS011;4663;49.120;9.730;2023-02-24T00:56:49;51.77;;;48.47;;
9254;SDS011;4663;49.120;9.730;2023-02-24T00:59:15;58.87;;;55.23;;
9254;SDS011;4663;49.120;9.730;2023-02-24T01:01:43;54.93;;;51.60;;
9254;SDS011;4663;49.120;9.730;2023-02-24T01:04:09;56.73;;;53.23;;
9254;SDS011;4663;49.120;9.730;2023-02-24T01:06:41;72.67;;;68.27;;
9254;SDS011;4663;49.120;9.730;2023-02-24T01:09:13;89.07;;;83.97;;
9254;SDS011;4663;49.120;9.730;2023-02-24T01:11:41;70.90;;;66.57;;
9254;SDS011;4663;49.120;9.730;2023-02-24T01:14:46;86.33;;;81.23;;
9254;SDS011;4663;49.120;9.730;2023-02-24T01:17:13;73.83;;;69.30;;
9254;SDS011;4663;49.120;9.730;2023-02-24T01:19:40;62.23;;;58.30;;
9254;SDS011;4663;49.120;9.730;2023-02-24T01:22:07;52.30;;;48.40;;
9254;SDS011;4663;49.120;9.730;2023-02-24T01:24:37;51.27;;;47.90;;
9254;SDS011;4663;49.120;9.730;2023-02-24T01:27:05;55.40;;;51.80;;
9254;SDS011;4663;49.120;9.730;2023-02-24T01:29:32;56.03;;;52.33;;
9254;SDS011;4663;49.120;9.730;2023-02-24T01:31:59;54.30;;;50.90;;
9254;SDS011;4663;49.120;9.730;2023-02-24T01:34:25;56.63;;;52.83;;
9254;SDS011;4663;49.120;9.730;2023-02-24T01:36:51;54.30;;;50.97;;
9254;SDS011;4663;49.120;9.730;2023-02-24T01:39:17;52.13;;;48.73;;
9254;SDS011;4663;49.120;9.730;2023-02-24T01:41:44;54.43;;;50.93;;
9254;SDS011;4663;49.120;9.730;2023-02-24T01:46:42;52.33;;;49.07;;
9254;SDS011;4663;49.120;9.730;2023-02-24T01:49:20;53.73;;;49.80;;
9254;SDS011;4663;49.120;9.730;2023-02-24T01:51:47;62.30;;;58.47;;
9254;SDS011;4663;49.120;9.730;2023-02-24T01:54:16;74.90;;;70.63;;
9254;SDS011;4663;49.120;9.730;2023-02-24T01:56:46;100.10;;;94.40;;
9254;SDS011;4663;49.120;9.730;2023-02-24T01:59:13;104.73;;;99.03;;
9254;SDS011;4663;49.120;9.730;2023-02-24T02:01:40;103.77;;;97.87;;
9254;SDS011;4663;49.120;9.730;2023-02-24T02:04:15;107.03;;;101.00;;
9254;SDS011;4663;49.120;9.730;2023-02-24T02:06:46;104.53;;;98.53;;
9254;SDS011;4663;49.120;9.730;2023-02-24T02:09:12;101.50;;;95.60;;
9254;SDS011;4663;49.120;9.730;2023-02-24T02:11:39;94.23;;;88.93;;
9254;SDS011;4663;49.120;9.730;2023-02-24T02:14:05;93.13;;;87.87;;
9254;SDS011;4663;49.120;9.730;2023-02-24T02:24:48;81.60;;;76.33;;
9254;SDS011;4663;49.120;9.730;2023-02-24T02:38:20;61.27;;;57.00;;
9254;SDS011;4663;49.120;9.730;2023-02-24T02:43:25;79.80;;;74.73;;
9254;SDS011;4663;49.120;9.730;2023-02-24T02:46:15;68.97;;;64.23;;
9254;SDS011;4663;49.120;9.730;2023-02-24T02:48:59;60.83;;;56.70;;
9254;SDS011;4663;49.120;9.730;2023-02-24T02:51:39;63.10;;;58.90;;
9254;SDS011;4663;49.120;9.730;2023-02-24T02:54:14;60.47;;;56.07;;
9254;SDS011;4663;49.120;9.730;2023-02-24T02:59:46;91.87;;;86.13;;
9254;SDS011;4663;49.120;9.730;2023-02-24T03:02:25;100.23;;;94.20;;
9254;SDS011;4663;49.120;9.730;2023-02-24T03:04:56;113.90;;;107.30;;
9254;SDS011;4663;49.120;9.730;2023-02-24T03:07:25;89.07;;;83.50;;
9254;SDS011;4663;49.120;9.730;2023-02-24T03:09:55;77.30;;;72.27;;
9254;SDS011;4663;49.120;9.730;2023-02-24T03:12:25;95.07;;;89.17;;
9254;SDS011;4663;49.120;9.730;2023-02-24T03:14:58;83.27;;;77.97;;
9254;SDS011;4663;49.120;9.730;2023-02-24T03:17:28;108.73;;;102.27;;
9254;SDS011;4663;49.120;9.730;2023-02-24T03:20:08;116.43;;;109.53;;
9254;SDS011;4663;49.120;9.730;2023-02-24T03:23:15;106.53;;;100.37;;
9254;SDS011;4663;49.120;9.730;2023-02-24T03:25:43;108.83;;;102.20;;
9254;SDS011;4663;49.120;9.730;2023-02-24T03:28:25;111.73;;;105.10;;
9254;SDS011;4663;49.120;9.730;2023-02-24T03:31:01;119.63;;;112.67;;
9254;SDS011;4663;49.120;9.730;2023-02-24T03:33:35;114.70;;;107.70;;
9254;SDS011;4663;49.120;9.730;2023-02-24T03:36:09;111.10;;;104.40;;
9254;SDS011;4663;49.120;9.730;2023-02-24T03:38:38;113.80;;;107.10;;
9254;SDS011;4663;49.120;9.730;2023-02-24T03:41:06;118.93;;;112.03;;
9254;SDS011;4663;49.120;9.730;2023-02-24T03:43:35;119.83;;;112.93;;
9254;SDS011;4663;49.120;9.730;2023-02-24T03:46:04;100.90;;;94.90;;
9254;SDS011;4663;49.120;9.730;2023-02-24T03:48:30;82.70;;;77.53;;
9254;SDS011;4663;49.120;9.730;2023-02-24T03:51:01;83.63;;;78.23;;
9254;SDS011;4663;49.120;9.730;2023-02-24T03:56:21;98.67;;;92.50;;
9254;SDS011;4663;49.120;9.730;2023-02-24T04:02:01;113.57;;;106.67;;
9254;SDS011;4663;49.120;9.730;2023-02-24T04:04:34;118.30;;;111.50;;
9254;SDS011;4663;49.120;9.730;2023-02-24T04:07:16;113.13;;;106.63;;
9254;SDS011;4663;49.120;9.730;2023-02-24T04:10:09;120.77;;;113.37;;
9254;SDS011;4663;49.120;9.730;2023-02-24T04:12:38;117.67;;;110.67;;
9254;SDS011;4663;49.120;9.730;2023-02-24T04:15:14;112.50;;;106.00;;
9254;SDS011;4663;49.120;9.730;2023-02-24T04:17:53;98.40;;;92.50;;
9254;SDS011;4663;49.120;9.730;2023-02-24T04:20:25;102.63;;;96.20;;
9254;SDS011;4663;49.120;9.730;2023-02-24T04:22:58;76.20;;;71.20;;
9254;SDS011;4663;49.120;9.730;2023-02-24T04:25:28;71.40;;;66.30;;
9254;SDS011;4663;49.120;9.730;2023-02-24T04:27:56;75.63;;;70.60;;
9254;SDS011;4663;49.120;9.730;2023-02-24T04:30:25;75.30;;;70.23;;
9254;SDS011;4663;49.120;9.730;2023-02-24T04:32:56;73.90;;;69.10;;
9254;SDS011;4663;49.120;9.730;2023-02-24T04:35:21;68.90;;;64.40;;
9254;SDS011;4663;49.120;9.730;2023-02-24T04:37:47;71.93;;;67.27;;
9254;SDS011;4663;49.120;9.730;2023-02-24T04:40:15;71.90;;;67.40;;
9254;SDS011;4663;49.120;9.730;2023-02-24T04:42:42;70.40;;;65.80;;
9254;SDS011;4663;49.120;9.730;2023-02-24T04:45:13;83.30;;;78.07;;
9254;SDS011;4663;49.120;9.730;2023-02-24T04:47:49;112.27;;;105.37;;
9254;SDS011;4663;49.120;9.730;2023-02-24T04:50:20;70.03;;;64.93;;
9254;SDS011;4663;49.120;9.730;2023-02-24T04:52:55;69.50;;;64.63;;
9254;SDS011;4663;49.120;9.730;2023-02-24T04:55:22;67.23;;;62.47;;
9254;SDS011;4663;49.120;9.730;2023-02-24T04:57:56;72.67;;;67.87;;
9254;SDS011;4663;49.120;9.730;2023-02-24T05:00:26;109.50;;;102.87;;
9254;SDS011;4663;49.120;9.730;2023-02-24T05:02:57;117.60;;;110.70;;
9254;SDS011;4663;49.120;9.730;2023-02-24T05:05:25;112.97;;;106.20;;
9254;SDS011;4663;49.120;9.730;2023-02-24T05:07:52;99.37;;;93.17;;
9254;SDS011;4663;49.120;9.730;2023-02-24T05:10:21;95.63;;;89.80;;
9254;SDS011;4663;49.120;9.730;2023-02-24T05:12:52;101.10;;;95.07;;
9254;SDS011;4663;49.120;9.730;2023-02-24T05:15:18;87.40;;;82.17;;
9254;SDS011;4663;49.120;9.730;2023-02-24T05:17:44;75.10;;;70.43;;
9254;SDS011;4663;49.120;9.730;2023-02-24T05:20:09;70.07;;;64.97;;
9254;SDS011;4663;49.120;9.730;2023-02-24T05:22:53;66.30;;;61.83;;
9254;SDS011;4663;49.120;9.730;2023-02-24T05:25:20;63.83;;;59.43;;
9254;SDS011;4663;49.120;9.730;2023-02-24T05:27:49;63.27;;;58.83;;
9254;SDS011;4663;49.120;9.730;2023-02-24T05:30:15;68.50;;;63.57;;
9254;SDS011;4663;49.120;9.730;2023-02-24T05:32:40;73.57;;;68.53;;
9254;SDS011;4663;49.120;9.730;2023-02-24T05:35:06;65.87;;;61.07;;
9254;SDS011;4663;49.120;9.730;2023-02-24T05:37:36;70.53;;;65.10;;
9254;SDS011;4663;49.120;9.730;2023-02-24T05:40:02;102.20;;;95.97;;
9254;SDS011;4663;49.120;9.730;2023-02-24T05:42:29;95.13;;;88.80;;
9254;SDS011;4663;49.120;9.730;2023-02-24T05:44:59;94.10;;;87.83;;
9254;SDS011;4663;49.120;9.730;2023-02-24T05:47:25;105.03;;;98.33;;
9254;SDS011;4663;49.120;9.730;2023-02-24T05:49:51;100.27;;;93.73;;
9254;SDS011;4663;49.120;9.730;2023-02-24T05:52:18;101.80;;;94.90;;
9254;SDS011;4663;49.120;9.730;2023-02-24T05:54:44;102.70;;;96.30;;
9254;SDS011;4663;49.120;9.730;2023-02-24T05:57:13;104.47;;;97.77;;
9254;SDS011;4663;49.120;9.730;2023-02-24T05:59:41;85.57;;;80.00;;
9254;SDS011;4663;49.120;9.730;2023-02-24T06:02:09;86.53;;;80.77;;
9254;SDS011;4663;49.120;9.730;2023-02-24T06:04:37;95.90;;;89.30;;
9254;SDS011;4663;49.120;9.730;2023-02-24T06:07:06;99.37;;;92.80;;
9254;SDS011;4663;49.120;9.730;2023-02-24T06:09:37;93.87;;;87.97;;
9254;SDS011;4663;49.120;9.730;2023-02-24T06:12:06;106.33;;;99.57;;
9254;SDS011;4663;49.120;9.730;2023-02-24T06:14:32;102.33;;;95.80;;
9254;SDS011;4663;49.120;9.730;2023-02-24T06:16:58;101.07;;;94.63;;
9254;SDS011;4663;49.120;9.730;2023-02-24T06:19:26;108.60;;;101.90;;
9254;SDS011;4663;49.120;9.730;2023-02-24T06:21:52;110.77;;;104.13;;
9254;SDS011;4663;49.120;9.730;2023-02-24T06:24:17;102.47;;;96.23;;
9254;SDS011;4663;49.120;9.730;2023-02-24T06:26:43;88.50;;;82.70;;
9254;SDS011;4663;49.120;9.730;2023-02-24T06:29:13;102.50;;;96.23;;
9254;SDS011;4663;49.120;9.730;2023-02-24T06:31:40;113.00;;;106.17;;
9254;SDS011;4663;49.120;9.730;2023-02-24T06:34:08;113.57;;;106.57;;
9254;SDS011;4663;49.120;9.730;2023-02-24T06:36:34;107.43;;;100.97;;
9254;SDS011;4663;49.120;9.730;2023-02-24T06:39:03;91.00;;;85.40;;
9254;SDS011;4663;49.120;9.730;2023-02-24T06:41:32;105.30;;;98.70;;
9254;SDS011;4663;49.120;9.730;2023-02-24T06:43:58;100.23;;;93.70;;
9254;SDS011;4663;49.120;9.730;2023-02-24T06:46:23;114.93;;;107.43;;
9254;SDS011;4663;49.120;9.730;2023-02-24T06:48:49;109.97;;;103.03;;
9254;SDS011;4663;49.120;9.730;2023-02-24T06:51:15;111.03;;;104.20;;
9254;SDS011;4663;49.120;9.730;2023-02-24T06:53:41;138.07;;;129.60;;
9254;SDS011;4663;49.120;9.730;2023-02-24T06:56:11;117.23;;;110.17;;
9254;SDS011;4663;49.120;9.730;2023-02-24T06:58:47;102.80;;;96.33;;
9254;SDS011;4663;49.120;9.730;2023-02-24T07:01:15;114.40;;;107.70;;
9254;SDS011;4663;49.120;9.730;2023-02-24T07:03:42;122.93;;;115.70;;
9254;SDS011;4663;49.120;9.730;2023-02-24T07:06:27;127.33;;;119.70;;
9254;SDS011;4663;49.120;9.730;2023-02-24T07:08:58;137.47;;;129.37;;
9254;SDS011;4663;49.120;9.730;2023-02-24T07:11:26;136.73;;;128.50;;
9254;SDS011;4663;49.120;9.730;2023-02-24T07:13:52;141.00;;;132.07;;
9254;SDS011;4663;49.120;9.730;2023-02-24T07:16:19;134.27;;;126.07;;
9254;SDS011;4663;49.120;9.730;2023-02-24T07:18:51;138.83;;;130.80;;
9254;SDS011;4663;49.120;9.730;2023-02-24T07:21:18;136.83;;;128.67;;
9254;SDS011;4663;49.120;9.730;2023-02-24T07:23:44;136.67;;;128.53;;
9254;SDS011;4663;49.120;9.730;2023-02-24T07:26:14;139.37;;;131.07;;
9254;SDS011;4663;49.120;9.730;2023-02-24T07:28:42;133.20;;;125.10;;
9254;SDS011;4663;49.120;9.730;2023-02-24T07:31:13;138.53;;;130.33;;
9254;SDS011;4663;49.120;9.730;2023-02-24T07:33:41;132.07;;;124.20;;
9254;SDS011;4663;49.120;9.730;2023-02-24T07:36:10;129.33;;;121.33;;
9254;SDS011;4663;49.120;9.730;2023-02-24T07:38:42;131.13;;;122.93;;
9254;SDS011;4663;49.120;9.730;2023-02-24T07:41:09;131.80;;;123.40;;
9254;SDS011;4663;49.120;9.730;2023-02-24T07:43:37;123.30;;;115.17;;
9254;SDS011;4663;49.120;9.730;2023-02-24T07:46:07;124.77;;;116.93;;
9254;SDS011;4663;49.120;9.730;2023-02-24T07:48:40;127.20;;;119.40;;
9254;SDS011;4663;49.120;9.730;2023-02-24T07:51:06;129.10;;;119.90;;
9254;SDS011;4663;49.120;9.730;2023-02-24T07:53:33;129.77;;;120.67;;
9254;SDS011;4663;49.120;9.730;2023-02-24T07:55:59;122.67;;;114.90;;
9254;SDS011;4663;49.120;9.730;2023-02-24T07:58:30;123.13;;;115.37;;
9254;SDS011;4663;49.120;9.730;2023-02-24T08:00:59;116.70;;;108.77;;
9254;SDS011;4663;49.120;9.730;2023-02-24T08:03:32;112.80;;;105.40;;
9254;SDS011;4663;49.120;9.730;2023-02-24T08:05:58;112.77;;;105.30;;
9254;SDS011;4663;49.120;9.730;2023-02-24T08:08:37;113.23;;;105.83;;
9254;SDS011;4663;49.120;9.730;2023-02-24T08:11:22;117.60;;;109.93;;
9254;SDS011;4663;49.120;9.730;2023-02-24T08:14:00;112.20;;;105.03;;
9254;SDS011;4663;49.120;9.730;2023-02-24T08:16:27;101.23;;;94.87;;
9254;SDS011;4663;49.120;9.730;2023-02-24T08:19:03;107.97;;;101.03;;
9254;SDS011;4663;49.120;9.730;2023-02-24T08:21:34;103.90;;;97.33;;
9254;SDS011;4663;49.120;9.730;2023-02-24T08:24:05;93.37;;;86.83;;
9254;SDS011;4663;49.120;9.730;2023-02-24T08:26:33;103.80;;;96.80;;
9254;SDS011;4663;49.120;9.730;2023-02-24T08:29:11;106.97;;;99.73;;
9254;SDS011;4663;49.120;9.730;2023-02-24T08:31:37;103.60;;;96.47;;
9254;SDS011;4663;49.120;9.730;2023-02-24T08:34:02;98.43;;;91.73;;
9254;SDS011;4663;49.120;9.730;2023-02-24T08:36:28;80.73;;;74.73;;
9254;SDS011;4663;49.120;9.730;2023-02-24T08:38:53;88.80;;;82.57;;
9254;SDS011;4663;49.120;9.730;2023-02-24T08:41:21;91.00;;;84.40;;
9254;SDS011;4663;49.120;9.730;2023-02-24T08:44:06;83.67;;;77.43;;
9254;SDS011;4663;49.120;9.730;2023-02-24T08:46:34;84.60;;;78.53;;
9254;SDS011;4663;49.120;9.730;2023-02-24T08:49:02;90.20;;;83.90;;
9254;SDS011;4663;49.120;9.730;2023-02-24T08:51:35;85.60;;;79.50;;
9254;SDS011;4663;49.120;9.730;2023-02-24T08:54:08;67.37;;;61.40;;
9254;SDS011;4663;49.120;9.730;2023-02-24T08:56:44;74.40;;;68.70;;
9254;SDS011;4663;49.120;9.730;2023-02-24T08:59:19;72.50;;;67.27;;
9254;SDS011;4663;49.120;9.730;2023-02-24T09:02:18;73.53;;;68.00;;
9254;SDS011;4663;49.120;9.730;2023-02-24T09:04:48;77.10;;;71.10;;
9254;SDS011;4663;49.120;9.730;2023-02-24T09:07:20;97.07;;;90.43;;
9254;SDS011;4663;49.120;9.730;2023-02-24T09:09:48;94.70;;;88.03;;
9254;SDS011;4663;49.120;9.730;2023-02-24T09:12:14;101.93;;;95.03;;
9254;SDS011;4663;49.120;9.730;2023-02-24T09:14:56;104.13;;;97.13;;
9254;SDS011;4663;49.120;9.730;2023-02-24T09:17:25;99.90;;;93.17;;
9254;SDS011;4663;49.120;9.730;2023-02-24T09:20:08;90.57;;;84.17;;
9254;SDS011;4663;49.120;9.730;2023-02-24T09:22:54;79.97;;;74.17;;
9254;SDS011;4663;49.120;9.730;2023-02-24T09:25:27;78.97;;;73.13;;
9254;SDS011;4663;49.120;9.730;2023-02-24T09:28:12;74.37;;;68.67;;
9254;SDS011;4663;49.120;9.730;2023-02-24T09:30:46;60.65;;;55.83;;
9254;SDS011;4663;49.120;9.730;2023-02-24T09:35:58;61.53;;;56.77;;
9254;SDS011;4663;49.120;9.730;2023-02-24T09:38:38;63.53;;;58.60;;
9254;SDS011;4663;49.120;9.730;2023-02-24T09:47:05;61.73;;;57.13;;
9254;SDS011;4663;49.120;9.730;2023-02-24T09:49:42;64.73;;;59.63;;
9254;SDS011;4663;49.120;9.730;2023-02-24T09:52:12;69.60;;;64.43;;
9254;SDS011;4663;49.120;9.730;2023-02-24T09:54:41;66.30;;;61.37;;
9254;SDS011;4663;49.120;9.730;2023-02-24T09:57:47;61.13;;;55.93;;
9254;SDS011;4663;49.120;9.730;2023-02-24T10:00:35;56.83;;;52.13;;
9254;SDS011;4663;49.120;9.730;2023-02-24T10:05:58;71.07;;;65.70;;
9254;SDS011;4663;49.120;9.730;2023-02-24T10:08:37;77.70;;;72.13;;
9254;SDS011;4663;49.120;9.730;2023-02-24T10:11:10;67.60;;;62.40;;
9254;SDS011;4663;49.120;9.730;2023-02-24T10:13:47;74.70;;;69.07;;
9254;SDS011;4663;49.120;9.730;2023-02-24T10:16:16;67.03;;;61.87;;
9254;SDS011;4663;49.120;9.730;2023-02-24T10:18:51;66.20;;;61.07;;
9254;SDS011;4663;49.120;9.730;2023-02-24T10:27:15;63.23;;;58.23;;
9254;SDS011;4663;49.120;9.730;2023-02-24T10:30:01;71.57;;;66.23;;
9254;SDS011;4663;49.120;9.730;2023-02-24T10:32:42;61.93;;;57.10;;
9254;SDS011;4663;49.120;9.730;2023-02-24T10:35:15;57.87;;;53.37;;
9254;SDS011;4663;49.120;9.730;2023-02-24T10:37:45;60.33;;;55.77;;
9254;SDS011;4663;49.120;9.730;2023-02-24T10:40:11;64.30;;;59.20;;
9254;SDS011;4663;49.120;9.730;2023-02-24T10:42:48;65.93;;;61.03;;
9254;SDS011;4663;49.120;9.730;2023-02-24T10:45:22;73.40;;;68.30;;
9254;SDS011;4663;49.120;9.730;2023-02-24T10:47:54;61.73;;;57.33;;
9254;SDS011;4663;49.120;9.730;2023-02-24T10:53:13;67.07;;;61.80;;
9254;SDS011;4663;49.120;9.730;2023-02-24T10:55:54;64.73;;;59.67;;
9254;SDS011;4663;49.120;9.730;2023-02-24T10:58:40;67.97;;;62.27;;
9254;SDS011;4663;49.120;9.730;2023-02-24T11:01:27;62.37;;;57.20;;
9254;SDS011;4663;49.120;9.730;2023-02-24T11:04:16;60.05;;;55.25;;
9254;SDS011;4663;49.120;9.730;2023-02-24T11:07:11;65.03;;;59.83;;
9254;SDS011;4663;49.120;9.730;2023-02-24T11:09:48;64.45;;;59.13;;
9254;SDS011;4663;49.120;9.730;2023-02-24T11:12:34;59.57;;;54.83;;
9254;SDS011;4663;49.120;9.730;2023-02-24T11:18:21;58.60;;;54.03;;
9254;SDS011;4663;49.120;9.730;2023-02-24T11:21:03;78.80;;;73.13;;
9254;SDS011;4663;49.120;9.730;2023-02-24T11:42:31;68.27;;;62.67;;
9254;SDS011;4663;49.120;9.730;2023-02-24T11:45:41;70.80;;;64.70;;
9254;SDS011;4663;49.120;9.730;2023-02-24T11:50:49;72.38;;;66.50;;
9254;SDS011;4663;49.120;9.730;2023-02-24T12:01:39;59.75;;;54.60;;
9254;SDS011;4663;49.120;9.730;2023-02-24T12:04:31;62.75;;;57.92;;
9254;SDS011;4663;49.120;9.730;2023-02-24T12:09:49;59.30;;;54.55;;
9254;SDS011;4663;49.120;9.730;2023-02-24T12:14:56;56.23;;;51.90;;
9254;SDS011;4663;49.120;9.730;2023-02-24T12:17:28;55.23;;;51.03;;
9254;SDS011;4663;49.120;9.730;2023-02-24T12:19:59;49.73;;;45.73;;
9254;SDS011;4663;49.120;9.730;2023-02-24T12:22:34;47.97;;;44.10;;
9254;SDS011;4663;49.120;9.730;2023-02-24T12:25:14;45.50;;;41.77;;
9254;SDS011;4663;49.120;9.730;2023-02-24T12:30:23;42.80;;;39.40;;
9254;SDS011;4663;49.120;9.730;2023-02-24T12:46:46;45.50;;;42.22;;
9254;SDS011;4663;49.120;9.730;2023-02-24T12:55:00;37.08;;;34.53;;
9254;SDS011;4663;49.120;9.730;2023-02-24T13:03:53;32.83;;;30.33;;
9254;SDS011;4663;49.120;9.730;2023-02-24T13:13:55;32.83;;;30.15;;
9254;SDS011;4663;49.120;9.730;2023-02-24T13:16:31;32.40;;;29.92;;
9254;SDS011;4663;49.120;9.730;2023-02-24T13:19:05;32.67;;;30.08;;
9254;SDS011;4663;49.120;9.730;2023-02-24T13:21:42;35.00;;;32.20;;
9254;SDS011;4663;49.120;9.730;2023-02-24T13:24:19;31.55;;;29.05;;
9254;SDS011;4663;49.120;9.730;2023-02-24T13:26:46;29.50;;;27.13;;
9254;SDS011;4663;49.120;9.730;2023-02-24T13:29:12;33.38;;;30.98;;
9254;SDS011;4663;49.120;9.730;2023-02-24T13:31:46;32.63;;;29.92;;
9254;SDS011;4663;49.120;9.730;2023-02-24T13:36:46;28.92;;;26.42;;
9254;SDS011;4663;49.120;9.730;2023-02-24T13:39:33;30.05;;;27.88;;
9254;SDS011;4663;49.120;9.730;2023-02-24T13:42:02;28.27;;;26.02;;
9254;SDS011;4663;49.120;9.730;2023-02-24T13:44:30;31.52;;;29.00;;
9254;SDS011;4663;49.120;9.730;2023-02-24T13:58:15;38.55;;;35.67;;
9254;SDS011;4663;49.120;9.730;2023-02-24T14:03:36;39.95;;;37.10;;
9254;SDS011;4663;49.120;9.730;2023-02-24T14:06:13;37.67;;;34.70;;
9254;SDS011;4663;49.120;9.730;2023-02-24T14:08:42;38.75;;;35.63;;
9254;SDS011;4663;49.120;9.730;2023-02-24T14:11:15;39.95;;;36.47;;
9254;SDS011;4663;49.120;9.730;2023-02-24T14:13:45;37.05;;;34.25;;
9254;SDS011;4663;49.120;9.730;2023-02-24T14:16:16;40.22;;;36.97;;
9254;SDS011;4663;49.120;9.730;2023-02-24T14:18:55;39.58;;;36.65;;
9254;SDS011;4663;49.120;9.730;2023-02-24T14:21:23;40.70;;;37.47;;
9254;SDS011;4663;49.120;9.730;2023-02-24T14:23:54;40.13;;;36.92;;
9254;SDS011;4663;49.120;9.730;2023-02-24T14:26:22;40.55;;;37.50;;
9254;SDS011;4663;49.120;9.730;2023-02-24T14:28:55;39.40;;;36.35;;
9254;SDS011;4663;49.120;9.730;2023-02-24T14:31:24;36.72;;;33.83;;
9254;SDS011;4663;49.120;9.730;2023-02-24T14:33:57;34.80;;;32.00;;
9254;SDS011;4663;49.120;9.730;2023-02-24T14:36:29;35.78;;;33.13;;
9254;SDS011;4663;49.120;9.730;2023-02-24T14:41:48;37.28;;;34.58;;
9254;SDS011;4663;49.120;9.730;2023-02-24T14:46:49;35.67;;;32.97;;
9254;SDS011;4663;49.120;9.730;2023-02-24T14:49:26;38.85;;;35.80;;
9254;SDS011;4663;49.120;9.730;2023-02-24T14:52:04;37.42;;;34.60;;
9254;SDS011;4663;49.120;9.730;2023-02-24T14:57:03;32.08;;;29.70;;
9254;SDS011;4663;49.120;9.730;2023-02-24T15:02:03;36.97;;;34.45;;
9254;SDS011;4663;49.120;9.730;2023-02-24T15:04:37;35.40;;;32.75;;
9254;SDS011;4663;49.120;9.730;2023-02-24T15:07:13;43.45;;;40.20;;
9254;SDS011;4663;49.120;9.730;2023-02-24T15:09:41;44.78;;;41.60;;
9254;SDS011;4663;49.120;9.730;2023-02-24T15:12:10;41.05;;;38.22;;
9254;SDS011;4663;49.120;9.730;2023-02-24T15:14:42;45.45;;;42.33;;
9254;SDS011;4663;49.120;9.730;2023-02-24T15:17:15;39.55;;;36.60;;
9254;SDS011;4663;49.120;9.730;2023-02-24T15:19:42;38.72;;;35.97;;
9254;SDS011;4663;49.120;9.730;2023-02-24T15:24:52;46.10;;;42.40;;
9254;SDS011;4663;49.120;9.730;2023-02-24T15:27:22;48.97;;;45.83;;
9254;SDS011;4663;49.120;9.730;2023-02-24T15:29:59;48.30;;;44.93;;
9254;SDS011;4663;49.120;9.730;2023-02-24T15:32:32;49.80;;;46.33;;
9254;SDS011;4663;49.120;9.730;2023-02-24T15:35:00;52.43;;;48.80;;
9254;SDS011;4663;49.120;9.730;2023-02-24T15:37:27;55.77;;;52.03;;
9254;SDS011;4663;49.120;9.730;2023-02-24T15:40:23;49.40;;;45.95;;
9254;SDS011;4663;49.120;9.730;2023-02-24T15:42:51;46.73;;;43.50;;
9254;SDS011;4663;49.120;9.730;2023-02-24T15:45:22;47.87;;;44.60;;
9254;SDS011;4663;49.120;9.730;2023-02-24T15:47:57;45.57;;;41.53;;
9254;SDS011;4663;49.120;9.730;2023-02-24T15:50:24;45.67;;;42.63;;
9254;SDS011;4663;49.120;9.730;2023-02-24T15:52:50;47.60;;;44.33;;
9254;SDS011;4663;49.120;9.730;2023-02-24T15:55:17;47.93;;;44.50;;
9254;SDS011;4663;49.120;9.730;2023-02-24T15:57:44;48.40;;;44.93;;
9254;SDS011;4663;49.120;9.730;2023-02-24T16:00:12;51.60;;;47.93;;
9254;SDS011;4663;49.120;9.730;2023-02-24T16:02:39;49.50;;;46.10;;
9254;SDS011;4663;49.120;9.730;2023-02-24T16:05:05;51.33;;;47.37;;
9254;SDS011;4663;49.120;9.730;2023-02-24T16:07:32;44.17;;;40.90;;
9254;SDS011;4663;49.120;9.730;2023-02-24T16:10:01;36.58;;;33.50;;
9254;SDS011;4663;49.120;9.730;2023-02-24T16:12:28;36.63;;;33.65;;
9254;SDS011;4663;49.120;9.730;2023-02-24T16:14:57;33.67;;;31.17;;
9254;SDS011;4663;49.120;9.730;2023-02-24T16:17:37;31.67;;;28.87;;
9254;SDS011;4663;49.120;9.730;2023-02-24T16:20:05;24.90;;;22.83;;
9254;SDS011;4663;49.120;9.730;2023-02-24T16:23:00;24.35;;;22.17;;
9254;SDS011;4663;49.120;9.730;2023-02-24T16:25:28;25.40;;;23.10;;
9254;SDS011;4663;49.120;9.730;2023-02-24T16:27:58;24.48;;;22.30;;
9254;SDS011;4663;49.120;9.730;2023-02-24T16:30:25;25.27;;;23.07;;
9254;SDS011;4663;49.120;9.730;2023-02-24T16:32:57;26.50;;;23.90;;
9254;SDS011;4663;49.120;9.730;2023-02-24T16:35:24;25.77;;;23.53;;
9254;SDS011;4663;49.120;9.730;2023-02-24T16:37:50;24.57;;;22.37;;
9254;SDS011;4663;49.120;9.730;2023-02-24T16:40:24;25.20;;;22.97;;
9254;SDS011;4663;49.120;9.730;2023-02-24T16:42:52;26.43;;;23.97;;
9254;SDS011;4663;49.120;9.730;2023-02-24T16:45:21;32.67;;;29.57;;
9254;SDS011;4663;49.120;9.730;2023-02-24T16:47:50;30.20;;;27.23;;
9254;SDS011;4663;49.120;9.730;2023-02-24T16:50:20;29.80;;;26.93;;
9254;SDS011;4663;49.120;9.730;2023-02-24T16:52:47;31.30;;;28.50;;
9254;SDS011;4663;49.120;9.730;2023-02-24T16:55:13;29.43;;;26.73;;
9254;SDS011;4663;49.120;9.730;2023-02-24T16:57:39;33.17;;;29.90;;
9254;SDS011;4663;49.120;9.730;2023-02-24T17:00:05;34.03;;;31.07;;
9254;SDS011;4663;49.120;9.730;2023-02-24T17:02:31;30.80;;;27.70;;
9254;SDS011;4663;49.120;9.730;2023-02-24T17:04:57;29.10;;;26.73;;
9254;SDS011;4663;49.120;9.730;2023-02-24T17:07:22;30.27;;;27.70;;
9254;SDS011;4663;49.120;9.730;2023-02-24T17:09:48;31.13;;;28.43;;
9254;SDS011;4663;49.120;9.730;2023-02-24T17:12:13;34.10;;;31.13;;
9254;SDS011;4663;49.120;9.730;2023-02-24T17:14:41;41.43;;;38.43;;
9254;SDS011;4663;49.120;9.730;2023-02-24T17:17:06;34.03;;;31.03;;
9254;SDS011;4663;49.120;9.730;2023-02-24T17:19:31;29.87;;;27.37;;
9254;SDS011;4663;49.120;9.730;2023-02-24T17:21:57;34.43;;;31.20;;
9254;SDS011;4663;49.120;9.730;2023-02-24T17:24:22;32.03;;;29.43;;
9254;SDS011;4663;49.120;9.730;2023-02-24T17:26:48;33.50;;;30.33;;
9254;SDS011;4663;49.120;9.730;2023-02-24T17:29:14;33.37;;;30.67;;
9254;SDS011;4663;49.120;9.730;2023-02-24T17:31:39;32.70;;;30.00;;
9254;SDS011;4663;49.120;9.730;2023-02-24T17:34:06;31.77;;;29.17;;
9254;SDS011;4663;49.120;9.730;2023-02-24T17:36:31;32.83;;;29.87;;
9254;SDS011;4663;49.120;9.730;2023-02-24T17:38:57;36.37;;;33.63;;
9254;SDS011;4663;49.120;9.730;2023-02-24T17:41:23;34.33;;;31.73;;
9254;SDS011;4663;49.120;9.730;2023-02-24T17:43:49;36.23;;;33.20;;